sensor_id;sensor_type;location;lat;lon;timestamp;temperature;humidity
11540;DHT22;5826;54.756;9.192;2022-12-22T00:01:14;7.10;99.90
11540;DHT22;5826;54.756;9.192;2022-12-22T00:03:58;7.10;99.90
11540;DHT22;5826;54.756;9.192;2022-12-22T00:06:42;7.10;99.90
11540;DHT22;5826;54.756;9.192;2022-12-22T00:09:26;7.10;99.90
11540;DHT22;5826;54.756;9.192;2022-12-22T00:12:11;7.20;99.90
11540;DHT22;5826;54.756;9.192;2022-12-22T00:14:57;7.20;99.90
11540;DHT22;5826;54.756;9.192;2022-12-22T00:17:42;7.20;99.90
11540;DHT22;5826;54.756;9.192;2022-12-22T00:20:26;7.20;99.90
11540;DHT22;5826;54.756;9.192;2022-12-22T00:23:10;7.40;99.90
11540;DHT22;5826;54.756;9.192;2022-12-22T00:25:55;7.20;99.90
11540;DHT22;5826;54.756;9.192;2022-12-22T00:28:39;7.20;99.90
11540;DHT22;5826;54.756;9.192;2022-12-22T00:31:23;7.20;99.90
11540;DHT22;5826;54.756;9.192;2022-12-22T00:34:15;7.20;99.90
11540;DHT22;5826;54.756;9.192;2022-12-22T00:36:59;7.20;99.90
11540;DHT22;5826;54.756;9.192;2022-12-22T00:39:43;7.20;99.90
11540;DHT22;5826;54.756;9.192;2022-12-22T00:42:28;7.20;99.90
11540;DHT22;5826;54.756;9.192;2022-12-22T00:45:12;7.20;99.90
11540;DHT22;5826;54.756;9.192;2022-12-22T00:47:56;7.20;99.90
11540;DHT22;5826;54.756;9.192;2022-12-22T00:50:40;7.20;99.90
11540;DHT22;5826;54.756;9.192;2022-12-22T00:53:24;7.20;99.90
11540;DHT22;5826;54.756;9.192;2022-12-22T00:56:09;7.20;99.90
11540;DHT22;5826;54.756;9.192;2022-12-22T00:58:56;7.30;99.90
11540;DHT22;5826;54.756;9.192;2022-12-22T01:01:40;7.30;99.90
11540;DHT22;5826;54.756;9.192;2022-12-22T01:04:25;7.30;99.90
11540;DHT22;5826;54.756;9.192;2022-12-22T01:07:11;7.30;99.90
11540;DHT22;5826;54.756;9.192;2022-12-22T01:09:56;7.30;99.90
11540;DHT22;5826;54.756;9.192;2022-12-22T01:12:40;7.30;99.90
11540;DHT22;5826;54.756;9.192;2022-12-22T01:15:27;7.30;99.90
11540;DHT22;5826;54.756;9.192;2022-12-22T01:18:12;7.30;99.90
11540;DHT22;5826;54.756;9.192;2022-12-22T01:20:56;7.30;99.90
11540;DHT22;5826;54.756;9.192;2022-12-22T01:23:40;7.30;99.90
11540;DHT22;5826;54.756;9.192;2022-12-22T01:26:25;7.40;99.90
11540;DHT22;5826;54.756;9.192;2022-12-22T01:29:09;7.40;99.90
11540;DHT22;5826;54.756;9.192;2022-12-22T01:31:54;7.40;99.90
11540;DHT22;5826;54.756;9.192;2022-12-22T01:34:38;7.40;99.90
11540;DHT22;5826;54.756;9.192;2022-12-22T01:37:22;7.40;99.90
11540;DHT22;5826;54.756;9.192;2022-12-22T01:40:13;7.40;99.90
11540;DHT22;5826;54.756;9.192;2022-12-22T01:42:58;7.40;99.90
11540;DHT22;5826;54.756;9.192;2022-12-22T01:45:42;7.40;99.90
11540;DHT22;5826;54.756;9.192;2022-12-22T01:48:28;7.40;99.90
11540;DHT22;5826;54.756;9.192;2022-12-22T01:51:25;7.30;99.90
11540;DHT22;5826;54.756;9.192;2022-12-22T01:54:10;7.30;99.90
11540;DHT22;5826;54.756;9.192;2022-12-22T01:56:55;7.30;99.90
11540;DHT22;5826;54.756;9.192;2022-12-22T01:59:39;7.30;99.90
11540;DHT22;5826;54.756;9.192;2022-12-22T02:02:24;7.30;99.90
11540;DHT22;5826;54.756;9.192;2022-12-22T02:05:12;7.30;99.90
11540;DHT22;5826;54.756;9.192;2022-12-22T02:08:18;7.30;99.90
11540;DHT22;5826;54.756;9.192;2022-12-22T02:11:23;7.30;99.90
11540;DHT22;5826;54.756;9.192;2022-12-22T02:14:25;7.30;99.90
11540;DHT22;5826;54.756;9.192;2022-12-22T02:17:33;7.30;99.90
11540;DHT22;5826;54.756;9.192;2022-12-22T02:20:42;7.30;99.90
11540;DHT22;5826;54.756;9.192;2022-12-22T02:23:52;7.30;99.90
11540;DHT22;5826;54.756;9.192;2022-12-22T02:26:48;7.30;99.90
11540;DHT22;5826;54.756;9.192;2022-12-22T02:29:36;7.30;99.90
11540;DHT22;5826;54.756;9.192;2022-12-22T02:32:23;7.30;99.90
11540;DHT22;5826;54.756;9.192;2022-12-22T02:35:15;7.30;99.90
11540;DHT22;5826;54.756;9.192;2022-12-22T02:38:07;7.30;99.90
11540;DHT22;5826;54.756;9.192;2022-12-22T02:41:17;7.30;99.90
11540;DHT22;5826;54.756;9.192;2022-12-22T02:44:27;7.30;99.90
11540;DHT22;5826;54.756;9.192;2022-12-22T02:47:41;7.30;99.90
11540;DHT22;5826;54.756;9.192;2022-12-22T02:50:32;7.40;99.90
11540;DHT22;5826;54.756;9.192;2022-12-22T02:53:18;7.40;99.90
11540;DHT22;5826;54.756;9.192;2022-12-22T02:56:06;7.40;99.90
11540;DHT22;5826;54.756;9.192;2022-12-22T02:58:51;7.40;99.90
11540;DHT22;5826;54.756;9.192;2022-12-22T03:01:39;7.40;99.90
11540;DHT22;5826;54.756;9.192;2022-12-22T03:04:23;7.40;99.90
11540;DHT22;5826;54.756;9.192;2022-12-22T03:07:07;7.40;99.90
11540;DHT22;5826;54.756;9.192;2022-12-22T03:09:51;7.40;99.90
11540;DHT22;5826;54.756;9.192;2022-12-22T03:12:35;7.40;99.90
11540;DHT22;5826;54.756;9.192;2022-12-22T03:15:19;7.40;99.90
11540;DHT22;5826;54.756;9.192;2022-12-22T03:18:05;7.40;99.90
11540;DHT22;5826;54.756;9.192;2022-12-22T03:20:49;7.40;99.90
11540;DHT22;5826;54.756;9.192;2022-12-22T03:23:34;7.40;99.90
11540;DHT22;5826;54.756;9.192;2022-12-22T03:26:18;7.40;99.90
11540;DHT22;5826;54.756;9.192;2022-12-22T03:28:44;7.40;99.90
11540;DHT22;5826;54.756;9.192;2022-12-22T03:31:11;7.40;99.90
11540;DHT22;5826;54.756;9.192;2022-12-22T03:33:36;7.40;99.90
11540;DHT22;5826;54.756;9.192;2022-12-22T03:36:03;7.40;99.90
11540;DHT22;5826;54.756;9.192;2022-12-22T03:38:29;7.40;99.90
11540;DHT22;5826;54.756;9.192;2022-12-22T03:40:55;7.50;99.90
11540;DHT22;5826;54.756;9.192;2022-12-22T03:43:20;7.50;99.90
11540;DHT22;5826;54.756;9.192;2022-12-22T03:46:05;7.50;99.90
11540;DHT22;5826;54.756;9.192;2022-12-22T03:49:02;7.50;99.90
11540;DHT22;5826;54.756;9.192;2022-12-22T03:51:36;7.50;99.90
11540;DHT22;5826;54.756;9.192;2022-12-22T03:54:02;7.50;99.90
11540;DHT22;5826;54.756;9.192;2022-12-22T03:56:27;7.50;99.90
11540;DHT22;5826;54.756;9.192;2022-12-22T03:58:53;7.50;99.90
11540;DHT22;5826;54.756;9.192;2022-12-22T04:01:18;7.50;99.90
11540;DHT22;5826;54.756;9.192;2022-12-22T04:03:44;7.50;99.90
11540;DHT22;5826;54.756;9.192;2022-12-22T04:06:09;7.50;99.90
11540;DHT22;5826;54.756;9.192;2022-12-22T04:08:35;7.50;99.90
11540;DHT22;5826;54.756;9.192;2022-12-22T04:11:00;7.40;99.90
11540;DHT22;5826;54.756;9.192;2022-12-22T04:13:45;7.50;99.90
11540;DHT22;5826;54.756;9.192;2022-12-22T04:16:10;7.40;99.90
11540;DHT22;5826;54.756;9.192;2022-12-22T04:18:35;7.40;99.90
11540;DHT22;5826;54.756;9.192;2022-12-22T04:21:01;7.50;99.90
11540;DHT22;5826;54.756;9.192;2022-12-22T04:23:26;7.50;99.90
11540;DHT22;5826;54.756;9.192;2022-12-22T04:25:52;7.50;99.90
11540;DHT22;5826;54.756;9.192;2022-12-22T04:28:18;7.50;99.90
11540;DHT22;5826;54.756;9.192;2022-12-22T04:30:43;7.50;99.90
11540;DHT22;5826;54.756;9.192;2022-12-22T04:33:09;7.50;99.90
11540;DHT22;5826;54.756;9.192;2022-12-22T04:35:34;7.60;99.90
11540;DHT22;5826;54.756;9.192;2022-12-22T04:38:00;7.50;99.90
11540;DHT22;5826;54.756;9.192;2022-12-22T04:40:25;7.50;99.90
11540;DHT22;5826;54.756;9.192;2022-12-22T04:42:51;7.50;99.90
11540;DHT22;5826;54.756;9.192;2022-12-22T04:45:16;7.50;99.90
11540;DHT22;5826;54.756;9.192;2022-12-22T04:47:42;7.40;99.90
11540;DHT22;5826;54.756;9.192;2022-12-22T04:50:08;7.40;99.90
11540;DHT22;5826;54.756;9.192;2022-12-22T04:52:33;7.40;99.90
11540;DHT22;5826;54.756;9.192;2022-12-22T04:54:59;7.40;99.90
11540;DHT22;5826;54.756;9.192;2022-12-22T04:57:24;7.40;99.90
11540;DHT22;5826;54.756;9.192;2022-12-22T04:59:50;7.40;99.90
11540;DHT22;5826;54.756;9.192;2022-12-22T05:02:15;7.30;99.90
11540;DHT22;5826;54.756;9.192;2022-12-22T05:04:41;7.30;99.90
11540;DHT22;5826;54.756;9.192;2022-12-22T05:07:06;7.30;99.90
11540;DHT22;5826;54.756;9.192;2022-12-22T05:09:32;7.20;99.90
11540;DHT22;5826;54.756;9.192;2022-12-22T05:11:58;7.30;99.90
11540;DHT22;5826;54.756;9.192;2022-12-22T05:14:23;7.20;99.90
11540;DHT22;5826;54.756;9.192;2022-12-22T05:16:49;7.30;99.90
11540;DHT22;5826;54.756;9.192;2022-12-22T05:19:14;7.20;99.90
11540;DHT22;5826;54.756;9.192;2022-12-22T05:21:40;7.30;99.90
11540;DHT22;5826;54.756;9.192;2022-12-22T05:24:06;7.30;99.90
11540;DHT22;5826;54.756;9.192;2022-12-22T05:26:31;7.30;99.90
11540;DHT22;5826;54.756;9.192;2022-12-22T05:28:57;7.30;99.90
11540;DHT22;5826;54.756;9.192;2022-12-22T05:31:23;7.20;99.90
11540;DHT22;5826;54.756;9.192;2022-12-22T05:33:49;7.30;99.90
11540;DHT22;5826;54.756;9.192;2022-12-22T05:36:15;7.30;99.90
11540;DHT22;5826;54.756;9.192;2022-12-22T05:38:41;7.30;99.90
11540;DHT22;5826;54.756;9.192;2022-12-22T05:41:07;7.30;99.90
11540;DHT22;5826;54.756;9.192;2022-12-22T05:43:33;7.30;99.90
11540;DHT22;5826;54.756;9.192;2022-12-22T05:46:04;7.30;99.90
11540;DHT22;5826;54.756;9.192;2022-12-22T05:48:30;7.30;99.90
11540;DHT22;5826;54.756;9.192;2022-12-22T05:50:55;7.30;99.90
11540;DHT22;5826;54.756;9.192;2022-12-22T05:53:21;7.30;99.90
11540;DHT22;5826;54.756;9.192;2022-12-22T05:55:47;7.40;99.90
11540;DHT22;5826;54.756;9.192;2022-12-22T05:58:12;7.30;99.90
11540;DHT22;5826;54.756;9.192;2022-12-22T06:00:38;7.40;99.90
11540;DHT22;5826;54.756;9.192;2022-12-22T06:03:03;7.30;99.90
11540;DHT22;5826;54.756;9.192;2022-12-22T06:05:28;7.30;99.90
11540;DHT22;5826;54.756;9.192;2022-12-22T06:07:54;7.30;99.90
11540;DHT22;5826;54.756;9.192;2022-12-22T06:10:19;7.30;99.90
11540;DHT22;5826;54.756;9.192;2022-12-22T06:12:45;7.30;99.90
11540;DHT22;5826;54.756;9.192;2022-12-22T06:15:12;7.30;99.90
11540;DHT22;5826;54.756;9.192;2022-12-22T06:17:38;7.30;99.90
11540;DHT22;5826;54.756;9.192;2022-12-22T06:20:04;7.30;99.90
11540;DHT22;5826;54.756;9.192;2022-12-22T06:22:31;7.30;99.90
11540;DHT22;5826;54.756;9.192;2022-12-22T06:24:57;7.30;99.90
11540;DHT22;5826;54.756;9.192;2022-12-22T06:27:22;7.30;99.90
11540;DHT22;5826;54.756;9.192;2022-12-22T06:29:48;7.30;99.90
11540;DHT22;5826;54.756;9.192;2022-12-22T06:32:13;7.30;99.90
11540;DHT22;5826;54.756;9.192;2022-12-22T06:34:38;7.30;99.90
11540;DHT22;5826;54.756;9.192;2022-12-22T06:37:04;7.40;99.90
11540;DHT22;5826;54.756;9.192;2022-12-22T06:39:29;7.30;99.90
11540;DHT22;5826;54.756;9.192;2022-12-22T06:41:55;7.30;99.90
11540;DHT22;5826;54.756;9.192;2022-12-22T06:44:39;7.30;99.90
11540;DHT22;5826;54.756;9.192;2022-12-22T06:47:05;7.30;99.90
11540;DHT22;5826;54.756;9.192;2022-12-22T06:49:30;7.30;99.90
11540;DHT22;5826;54.756;9.192;2022-12-22T06:51:55;7.30;99.90
11540;DHT22;5826;54.756;9.192;2022-12-22T06:54:21;7.30;99.90
11540;DHT22;5826;54.756;9.192;2022-12-22T06:56:46;7.30;99.90
11540;DHT22;5826;54.756;9.192;2022-12-22T06:59:12;7.20;99.90
11540;DHT22;5826;54.756;9.192;2022-12-22T07:01:38;7.30;99.90
11540;DHT22;5826;54.756;9.192;2022-12-22T07:04:04;7.20;99.90
11540;DHT22;5826;54.756;9.192;2022-12-22T07:06:29;7.20;99.90
11540;DHT22;5826;54.756;9.192;2022-12-22T07:08:55;7.20;99.90
11540;DHT22;5826;54.756;9.192;2022-12-22T07:11:20;7.20;99.90
11540;DHT22;5826;54.756;9.192;2022-12-22T07:13:46;7.20;99.90
11540;DHT22;5826;54.756;9.192;2022-12-22T07:16:11;7.20;99.90
11540;DHT22;5826;54.756;9.192;2022-12-22T07:18:39;7.20;99.90
11540;DHT22;5826;54.756;9.192;2022-12-22T07:21:11;7.20;99.90
11540;DHT22;5826;54.756;9.192;2022-12-22T07:23:37;7.20;99.90
11540;DHT22;5826;54.756;9.192;2022-12-22T07:26:04;7.30;99.90
11540;DHT22;5826;54.756;9.192;2022-12-22T07:28:32;7.20;99.90
11540;DHT22;5826;54.756;9.192;2022-12-22T07:30:58;7.30;99.90
11540;DHT22;5826;54.756;9.192;2022-12-22T07:33:23;7.30;99.90
11540;DHT22;5826;54.756;9.192;2022-12-22T07:36:09;7.30;99.90
11540;DHT22;5826;54.756;9.192;2022-12-22T07:38:37;7.30;99.90
11540;DHT22;5826;54.756;9.192;2022-12-22T07:41:04;7.40;99.90
11540;DHT22;5826;54.756;9.192;2022-12-22T07:43:52;7.40;99.90
11540;DHT22;5826;54.756;9.192;2022-12-22T07:46:18;7.40;99.90
11540;DHT22;5826;54.756;9.192;2022-12-22T07:48:44;7.40;99.90
11540;DHT22;5826;54.756;9.192;2022-12-22T07:51:32;7.40;99.90
11540;DHT22;5826;54.756;9.192;2022-12-22T07:53:57;7.50;99.90
11540;DHT22;5826;54.756;9.192;2022-12-22T07:56:23;7.40;99.90
11540;DHT22;5826;54.756;9.192;2022-12-22T07:58:49;7.40;99.90
11540;DHT22;5826;54.756;9.192;2022-12-22T08:01:14;7.40;99.90
11540;DHT22;5826;54.756;9.192;2022-12-22T08:03:39;7.40;99.90
11540;DHT22;5826;54.756;9.192;2022-12-22T08:06:05;7.50;99.90
11540;DHT22;5826;54.756;9.192;2022-12-22T08:08:33;7.40;99.90
11540;DHT22;5826;54.756;9.192;2022-12-22T08:11:01;7.40;99.90
11540;DHT22;5826;54.756;9.192;2022-12-22T08:13:27;7.40;99.90
11540;DHT22;5826;54.756;9.192;2022-12-22T08:15:52;7.40;99.90
11540;DHT22;5826;54.756;9.192;2022-12-22T08:18:18;7.40;99.90
11540;DHT22;5826;54.756;9.192;2022-12-22T08:20:50;7.40;99.90
11540;DHT22;5826;54.756;9.192;2022-12-22T08:23:16;7.50;99.90
11540;DHT22;5826;54.756;9.192;2022-12-22T08:25:42;7.50;99.90
11540;DHT22;5826;54.756;9.192;2022-12-22T08:28:08;7.40;99.90
11540;DHT22;5826;54.756;9.192;2022-12-22T08:30:34;7.50;99.90
11540;DHT22;5826;54.756;9.192;2022-12-22T08:32:59;7.50;99.90
11540;DHT22;5826;54.756;9.192;2022-12-22T08:35:25;7.50;99.90
11540;DHT22;5826;54.756;9.192;2022-12-22T08:37:51;7.50;99.90
11540;DHT22;5826;54.756;9.192;2022-12-22T08:40:23;7.40;99.90
11540;DHT22;5826;54.756;9.192;2022-12-22T08:42:52;7.50;99.90
11540;DHT22;5826;54.756;9.192;2022-12-22T08:45:18;7.50;99.90
11540;DHT22;5826;54.756;9.192;2022-12-22T08:47:44;7.50;99.90
11540;DHT22;5826;54.756;9.192;2022-12-22T08:50:10;7.50;99.90
11540;DHT22;5826;54.756;9.192;2022-12-22T08:52:36;7.50;99.90
11540;DHT22;5826;54.756;9.192;2022-12-22T08:55:01;7.50;99.90
11540;DHT22;5826;54.756;9.192;2022-12-22T08:57:27;7.50;99.90
11540;DHT22;5826;54.756;9.192;2022-12-22T08:59:52;7.50;99.90
11540;DHT22;5826;54.756;9.192;2022-12-22T09:02:18;7.50;99.90
11540;DHT22;5826;54.756;9.192;2022-12-22T09:04:43;7.50;99.90
11540;DHT22;5826;54.756;9.192;2022-12-22T09:07:09;7.50;99.90
11540;DHT22;5826;54.756;9.192;2022-12-22T09:09:35;7.50;99.90
11540;DHT22;5826;54.756;9.192;2022-12-22T09:12:01;7.50;99.90
11540;DHT22;5826;54.756;9.192;2022-12-22T09:14:29;7.40;99.90
11540;DHT22;5826;54.756;9.192;2022-12-22T09:16:54;7.40;99.90
11540;DHT22;5826;54.756;9.192;2022-12-22T09:19:20;7.50;99.90
11540;DHT22;5826;54.756;9.192;2022-12-22T09:21:46;7.50;99.90
11540;DHT22;5826;54.756;9.192;2022-12-22T09:24:11;7.40;99.90
11540;DHT22;5826;54.756;9.192;2022-12-22T09:26:37;7.40;99.90
11540;DHT22;5826;54.756;9.192;2022-12-22T09:29:03;7.50;99.90
11540;DHT22;5826;54.756;9.192;2022-12-22T09:31:29;7.50;99.90
11540;DHT22;5826;54.756;9.192;2022-12-22T09:33:56;7.50;99.90
11540;DHT22;5826;54.756;9.192;2022-12-22T09:36:25;7.50;99.90
11540;DHT22;5826;54.756;9.192;2022-12-22T09:38:52;7.60;99.90
11540;DHT22;5826;54.756;9.192;2022-12-22T09:43:45;7.60;99.90
11540;DHT22;5826;54.756;9.192;2022-12-22T09:46:26;7.60;99.90
11540;DHT22;5826;54.756;9.192;2022-12-22T09:48:52;7.50;99.90
11540;DHT22;5826;54.756;9.192;2022-12-22T09:51:20;7.50;99.90
11540;DHT22;5826;54.756;9.192;2022-12-22T09:53:48;7.60;99.90
11540;DHT22;5826;54.756;9.192;2022-12-22T09:56:16;7.60;99.90
11540;DHT22;5826;54.756;9.192;2022-12-22T09:58:43;7.70;99.90
11540;DHT22;5826;54.756;9.192;2022-12-22T10:09:31;7.70;99.90
11540;DHT22;5826;54.756;9.192;2022-12-22T10:11:59;7.70;99.90
11540;DHT22;5826;54.756;9.192;2022-12-22T10:14:40;7.80;99.90
11540;DHT22;5826;54.756;9.192;2022-12-22T10:17:18;7.70;99.90
11540;DHT22;5826;54.756;9.192;2022-12-22T10:19:45;7.70;99.90
11540;DHT22;5826;54.756;9.192;2022-12-22T10:22:30;7.70;99.90
11540;DHT22;5826;54.756;9.192;2022-12-22T10:25:01;7.70;99.90
11540;DHT22;5826;54.756;9.192;2022-12-22T10:27:33;7.70;99.90
11540;DHT22;5826;54.756;9.192;2022-12-22T10:30:21;7.60;99.90
11540;DHT22;5826;54.756;9.192;2022-12-22T10:33:03;7.60;99.90
11540;DHT22;5826;54.756;9.192;2022-12-22T10:35:49;7.60;99.90
11540;DHT22;5826;54.756;9.192;2022-12-22T10:40:46;7.60;99.90
11540;DHT22;5826;54.756;9.192;2022-12-22T10:43:21;7.60;99.90
11540;DHT22;5826;54.756;9.192;2022-12-22T10:45:49;7.60;99.90
11540;DHT22;5826;54.756;9.192;2022-12-22T10:48:15;7.60;99.90
11540;DHT22;5826;54.756;9.192;2022-12-22T10:50:48;7.70;99.90
11540;DHT22;5826;54.756;9.192;2022-12-22T10:53:14;7.70;99.90
11540;DHT22;5826;54.756;9.192;2022-12-22T10:55:40;7.60;99.90
11540;DHT22;5826;54.756;9.192;2022-12-22T11:00:35;7.70;99.90
11540;DHT22;5826;54.756;9.192;2022-12-22T11:03:02;7.70;99.90
11540;DHT22;5826;54.756;9.192;2022-12-22T11:05:28;7.70;99.90
11540;DHT22;5826;54.756;9.192;2022-12-22T11:07:54;7.70;99.90
11540;DHT22;5826;54.756;9.192;2022-12-22T11:10:37;7.80;99.90
11540;DHT22;5826;54.756;9.192;2022-12-22T11:13:38;7.80;99.90
11540;DHT22;5826;54.756;9.192;2022-12-22T11:16:17;7.80;99.90
11540;DHT22;5826;54.756;9.192;2022-12-22T11:24:46;8.00;99.90
11540;DHT22;5826;54.756;9.192;2022-12-22T11:38:45;8.20;99.90
11540;DHT22;5826;54.756;9.192;2022-12-22T11:46:53;8.30;99.90
11540;DHT22;5826;54.756;9.192;2022-12-22T11:54:38;8.30;99.90
11540;DHT22;5826;54.756;9.192;2022-12-22T11:57:30;8.30;99.90
11540;DHT22;5826;54.756;9.192;2022-12-22T12:00:12;8.30;99.90
11540;DHT22;5826;54.756;9.192;2022-12-22T12:08:42;8.20;99.90
11540;DHT22;5826;54.756;9.192;2022-12-22T12:11:26;8.10;99.90
11540;DHT22;5826;54.756;9.192;2022-12-22T12:14:17;8.20;99.90
11540;DHT22;5826;54.756;9.192;2022-12-22T12:19:50;8.20;99.90
11540;DHT22;5826;54.756;9.192;2022-12-22T12:22:59;8.20;99.90
11540;DHT22;5826;54.756;9.192;2022-12-22T12:28:47;8.20;99.90
11540;DHT22;5826;54.756;9.192;2022-12-22T12:31:16;8.20;99.90
11540;DHT22;5826;54.756;9.192;2022-12-22T12:33:50;8.30;99.90
11540;DHT22;5826;54.756;9.192;2022-12-22T12:36:22;8.30;99.90
11540;DHT22;5826;54.756;9.192;2022-12-22T12:39:04;8.30;99.90
11540;DHT22;5826;54.756;9.192;2022-12-22T12:44:47;8.30;99.90
11540;DHT22;5826;54.756;9.192;2022-12-22T12:47:20;8.40;99.90
11540;DHT22;5826;54.756;9.192;2022-12-22T12:57:56;8.50;99.90
11540;DHT22;5826;54.756;9.192;2022-12-22T13:03:03;8.40;99.90
11540;DHT22;5826;54.756;9.192;2022-12-22T13:05:51;8.40;99.90
11540;DHT22;5826;54.756;9.192;2022-12-22T13:08:19;8.40;99.90
11540;DHT22;5826;54.756;9.192;2022-12-22T13:20:57;8.30;99.90
11540;DHT22;5826;54.756;9.192;2022-12-22T13:23:28;8.20;99.90
11540;DHT22;5826;54.756;9.192;2022-12-22T13:26:15;8.10;99.90
11540;DHT22;5826;54.756;9.192;2022-12-22T13:28:43;8.00;99.90
11540;DHT22;5826;54.756;9.192;2022-12-22T13:31:40;8.00;99.90
11540;DHT22;5826;54.756;9.192;2022-12-22T13:36:47;7.90;99.90
11540;DHT22;5826;54.756;9.192;2022-12-22T13:39:14;7.80;99.90
11540;DHT22;5826;54.756;9.192;2022-12-22T13:41:43;7.80;99.90
11540;DHT22;5826;54.756;9.192;2022-12-22T13:44:20;7.70;99.90
11540;DHT22;5826;54.756;9.192;2022-12-22T13:46:46;7.70;99.90
11540;DHT22;5826;54.756;9.192;2022-12-22T13:49:15;7.70;99.90
11540;DHT22;5826;54.756;9.192;2022-12-22T13:51:41;7.70;99.90
11540;DHT22;5826;54.756;9.192;2022-12-22T13:54:17;7.70;99.90
11540;DHT22;5826;54.756;9.192;2022-12-22T13:56:49;7.70;99.90
11540;DHT22;5826;54.756;9.192;2022-12-22T13:59:40;7.70;99.90
11540;DHT22;5826;54.756;9.192;2022-12-22T14:04:32;7.60;99.90
11540;DHT22;5826;54.756;9.192;2022-12-22T14:07:12;7.70;99.90
11540;DHT22;5826;54.756;9.192;2022-12-22T14:09:45;7.60;99.90
11540;DHT22;5826;54.756;9.192;2022-12-22T14:12:19;7.60;99.90
11540;DHT22;5826;54.756;9.192;2022-12-22T14:14:47;7.60;99.90
11540;DHT22;5826;54.756;9.192;2022-12-22T14:19:52;7.60;99.90
11540;DHT22;5826;54.756;9.192;2022-12-22T14:22:40;7.60;99.90
11540;DHT22;5826;54.756;9.192;2022-12-22T14:25:12;7.60;99.90
11540;DHT22;5826;54.756;9.192;2022-12-22T14:27:46;7.60;99.90
11540;DHT22;5826;54.756;9.192;2022-12-22T14:30:20;7.60;99.90
11540;DHT22;5826;54.756;9.192;2022-12-22T14:32:48;7.60;99.90
11540;DHT22;5826;54.756;9.192;2022-12-22T14:40:39;7.60;99.90
11540;DHT22;5826;54.756;9.192;2022-12-22T14:43:24;7.60;99.90
11540;DHT22;5826;54.756;9.192;2022-12-22T14:45:58;7.70;99.90
11540;DHT22;5826;54.756;9.192;2022-12-22T14:48:31;7.60;99.90
11540;DHT22;5826;54.756;9.192;2022-12-22T14:50:58;7.70;99.90
11540;DHT22;5826;54.756;9.192;2022-12-22T14:53:31;7.70;99.90
11540;DHT22;5826;54.756;9.192;2022-12-22T14:55:59;7.70;99.90
11540;DHT22;5826;54.756;9.192;2022-12-22T14:58:30;7.70;99.90
11540;DHT22;5826;54.756;9.192;2022-12-22T15:03:40;7.70;99.90
11540;DHT22;5826;54.756;9.192;2022-12-22T15:11:31;7.70;99.90
11540;DHT22;5826;54.756;9.192;2022-12-22T15:13:57;7.70;99.90
11540;DHT22;5826;54.756;9.192;2022-12-22T15:16:23;7.70;99.90
11540;DHT22;5826;54.756;9.192;2022-12-22T15:18:50;7.70;99.90
11540;DHT22;5826;54.756;9.192;2022-12-22T15:21:18;7.70;99.90
11540;DHT22;5826;54.756;9.192;2022-12-22T15:23:44;7.70;99.90
11540;DHT22;5826;54.756;9.192;2022-12-22T15:26:10;7.80;99.90
11540;DHT22;5826;54.756;9.192;2022-12-22T15:28:35;7.70;99.90
11540;DHT22;5826;54.756;9.192;2022-12-22T15:31:02;7.70;99.90
11540;DHT22;5826;54.756;9.192;2022-12-22T15:33:29;7.80;99.90
11540;DHT22;5826;54.756;9.192;2022-12-22T15:35:55;7.70;99.90
11540;DHT22;5826;54.756;9.192;2022-12-22T15:38:23;7.80;99.90
11540;DHT22;5826;54.756;9.192;2022-12-22T15:40:49;7.80;99.90
11540;DHT22;5826;54.756;9.192;2022-12-22T15:43:16;7.80;99.90
11540;DHT22;5826;54.756;9.192;2022-12-22T15:45:43;7.80;99.90
11540;DHT22;5826;54.756;9.192;2022-12-22T15:48:30;7.80;99.90
11540;DHT22;5826;54.756;9.192;2022-12-22T15:50:57;7.80;99.90
11540;DHT22;5826;54.756;9.192;2022-12-22T15:53:23;7.80;99.90
11540;DHT22;5826;54.756;9.192;2022-12-22T15:55:52;7.80;99.90
11540;DHT22;5826;54.756;9.192;2022-12-22T15:58:20;7.80;99.90
11540;DHT22;5826;54.756;9.192;2022-12-22T16:00:46;7.90;99.90
11540;DHT22;5826;54.756;9.192;2022-12-22T16:03:12;7.90;99.90
11540;DHT22;5826;54.756;9.192;2022-12-22T16:05:39;7.90;99.90
11540;DHT22;5826;54.756;9.192;2022-12-22T16:08:20;7.90;99.90
11540;DHT22;5826;54.756;9.192;2022-12-22T16:10:47;7.90;99.90
11540;DHT22;5826;54.756;9.192;2022-12-22T16:13:15;7.90;99.90
11540;DHT22;5826;54.756;9.192;2022-12-22T16:15:40;7.90;99.90
11540;DHT22;5826;54.756;9.192;2022-12-22T16:18:06;8.00;99.90
11540;DHT22;5826;54.756;9.192;2022-12-22T16:20:36;8.00;99.90
11540;DHT22;5826;54.756;9.192;2022-12-22T16:23:04;8.00;99.90
11540;DHT22;5826;54.756;9.192;2022-12-22T16:25:33;8.00;99.90
11540;DHT22;5826;54.756;9.192;2022-12-22T16:28:00;8.00;99.90
11540;DHT22;5826;54.756;9.192;2022-12-22T16:30:28;8.00;99.90
11540;DHT22;5826;54.756;9.192;2022-12-22T16:32:54;8.00;99.90
11540;DHT22;5826;54.756;9.192;2022-12-22T16:35:28;7.90;99.90
11540;DHT22;5826;54.756;9.192;2022-12-22T16:37:55;8.00;99.90
11540;DHT22;5826;54.756;9.192;2022-12-22T16:40:21;8.00;99.90
11540;DHT22;5826;54.756;9.192;2022-12-22T16:42:58;8.00;99.90
11540;DHT22;5826;54.756;9.192;2022-12-22T16:45:26;8.00;99.90
11540;DHT22;5826;54.756;9.192;2022-12-22T16:47:56;8.00;99.90
11540;DHT22;5826;54.756;9.192;2022-12-22T16:50:25;8.00;99.90
11540;DHT22;5826;54.756;9.192;2022-12-22T16:52:58;8.00;99.90
11540;DHT22;5826;54.756;9.192;2022-12-22T16:55:24;8.00;99.90
11540;DHT22;5826;54.756;9.192;2022-12-22T16:57:51;8.10;99.90
11540;DHT22;5826;54.756;9.192;2022-12-22T17:00:19;8.00;99.90
11540;DHT22;5826;54.756;9.192;2022-12-22T17:02:49;8.00;99.90
11540;DHT22;5826;54.756;9.192;2022-12-22T17:05:40;8.00;99.90
11540;DHT22;5826;54.756;9.192;2022-12-22T17:08:10;8.00;99.90
11540;DHT22;5826;54.756;9.192;2022-12-22T17:10:37;8.00;99.90
11540;DHT22;5826;54.756;9.192;2022-12-22T17:13:03;8.00;99.90
11540;DHT22;5826;54.756;9.192;2022-12-22T17:15:29;8.00;99.90
11540;DHT22;5826;54.756;9.192;2022-12-22T17:17:54;8.00;99.90
11540;DHT22;5826;54.756;9.192;2022-12-22T17:20:22;7.90;99.90
11540;DHT22;5826;54.756;9.192;2022-12-22T17:23:01;7.90;99.90
11540;DHT22;5826;54.756;9.192;2022-12-22T17:25:29;7.90;99.90
11540;DHT22;5826;54.756;9.192;2022-12-22T17:27:56;7.90;99.90
11540;DHT22;5826;54.756;9.192;2022-12-22T17:30:24;7.90;99.90
11540;DHT22;5826;54.756;9.192;2022-12-22T17:32:50;7.90;99.90
11540;DHT22;5826;54.756;9.192;2022-12-22T17:35:23;7.90;99.90
11540;DHT22;5826;54.756;9.192;2022-12-22T17:37:50;7.90;99.90
11540;DHT22;5826;54.756;9.192;2022-12-22T17:40:27;7.80;99.90
11540;DHT22;5826;54.756;9.192;2022-12-22T17:42:55;7.80;99.90
11540;DHT22;5826;54.756;9.192;2022-12-22T17:45:22;7.80;99.90
11540;DHT22;5826;54.756;9.192;2022-12-22T17:47:48;7.80;99.90
11540;DHT22;5826;54.756;9.192;2022-12-22T17:50:16;7.80;99.90
11540;DHT22;5826;54.756;9.192;2022-12-22T17:52:43;7.80;99.90
11540;DHT22;5826;54.756;9.192;2022-12-22T17:55:21;7.80;99.90
11540;DHT22;5826;54.756;9.192;2022-12-22T17:57:47;7.80;99.90
11540;DHT22;5826;54.756;9.192;2022-12-22T18:00:22;7.70;99.90
11540;DHT22;5826;54.756;9.192;2022-12-22T18:02:49;7.70;99.90
11540;DHT22;5826;54.756;9.192;2022-12-22T18:05:16;7.70;99.90
11540;DHT22;5826;54.756;9.192;2022-12-22T18:07:43;7.70;99.90
11540;DHT22;5826;54.756;9.192;2022-12-22T18:10:28;7.70;99.90
11540;DHT22;5826;54.756;9.192;2022-12-22T18:12:56;7.70;99.90
11540;DHT22;5826;54.756;9.192;2022-12-22T18:15:23;7.70;99.90
11540;DHT22;5826;54.756;9.192;2022-12-22T18:17:49;7.70;99.90
11540;DHT22;5826;54.756;9.192;2022-12-22T18:20:20;7.70;99.90